| time (UTC) | temp C | wind direction | speed KPH | gust KPH | rain 1hr cm | rain 24hr cm | rain mn cm | humidity % | barometer mb |
| 20260906225028 | 15 | 48 | 8.0 | 11.3 | 0.00 | 0.08 | 0.08 | 89 | 927.1 |
| 20260906224049 | 15 | 327 | 6.4 | 11.3 | 0.00 | 0.08 | 0.08 | 89 | 927.1 |
| 20260906223031 | 15 | 331 | 6.4 | 9.7 | 0.00 | 0.08 | 0.08 | 91 | 927.3 |
| 20260906222027 | 15 | 315 | 6.4 | 9.7 | 0.00 | 0.08 | 0.08 | 91 | 927.3 |
| 20260906221029 | 15 | 10 | 4.8 | 8.0 | 0.00 | 0.08 | 0.08 | 91 | 927.1 |
| 20260906220030 | 15 | 350 | 6.4 | 8.0 | 0.00 | 0.08 | 0.08 | 92 | 927.1 |
| 20260906215112 | 15 | 10 | 6.4 | 9.7 | 0.00 | 0.08 | 0.08 | 92 | 927.1 |
| 20260906214049 | 14 | 20 | 4.8 | 8.0 | 0.03 | 0.08 | 0.08 | 92 | 927.1 |
| 20260906213016 | 14 | 359 | 6.4 | 9.7 | 0.05 | 0.08 | 0.08 | 93 | 927.3 |
| 20260906212039 | 14 | 41 | 6.4 | 11.3 | 0.05 | 0.08 | 0.08 | 93 | 927.3 |
| 20260906211020 | 14 | 65 | 4.8 | 8.0 | 0.05 | 0.08 | 0.08 | 93 | 927.8 |
| 20260906210021 | 14 | 82 | 6.4 | 8.0 | 0.05 | 0.08 | 0.08 | 93 | 927.8 |
| 20260906205024 | 14 | 83 | 4.8 | 8.0 | 0.05 | 0.08 | 0.08 | 93 | 927.9 |
| 20260906204021 | 13 | 97 | 6.4 | 9.7 | 0.05 | 0.05 | 0.05 | 93 | 928.0 |
| 20260906203021 | 13 | 98 | 8.0 | 9.7 | 0.03 | 0.03 | 0.03 | 92 | 928.1 |
| 20260906202022 | 14 | 95 | 8.0 | 9.7 | 0.03 | 0.03 | 0.03 | 91 | 928.1 |
| 20260906201025 | 14 | 104 | 6.4 | 8.0 | 0.03 | 0.03 | 0.03 | 91 | 928.1 |
| 20260906200026 | 14 | 95 | 8.0 | 9.7 | 0.03 | 0.03 | 0.03 | 90 | 928.2 |
| 20260906195048 | 15 | 100 | 8.0 | 11.3 | 0.03 | 0.03 | 0.03 | 90 | 928.3 |
| 20260906194030 | 15 | 102 | 6.4 | 9.7 | 0.00 | 0.00 | 0.00 | 90 | 928.3 |
| 20260906193031 | 15 | 89 | 8.0 | 9.7 | 0.00 | 0.00 | 0.00 | 90 | 928.5 |
| 20260906192028 | 15 | 114 | 6.4 | 9.7 | 0.00 | 0.00 | 0.00 | 88 | 928.8 |
| 20260906191023 | 15 | 113 | 6.4 | 8.0 | 0.00 | 0.00 | 0.00 | 86 | 928.8 |
| 20260906190021 | 15 | 109 | 8.0 | 12.9 | 0.00 | 0.00 | 0.00 | 85 | 928.9 |
| 20260906185027 | 15 | 97 | 8.0 | 12.9 | 0.00 | 0.00 | 0.00 | 85 | 929.0 |
| 20260906184029 | 15 | 109 | 4.8 | 8.0 | 0.00 | 0.00 | 0.00 | 85 | 929.1 |
| 20260906183054 | 15 | 112 | 6.4 | 8.0 | 0.00 | 0.00 | 0.00 | 85 | 929.3 |
| 20260906182033 | 15 | 121 | 6.4 | 9.7 | 0.00 | 0.00 | 0.00 | 84 | 929.3 |
| 20260906181020 | 15 | 99 | 6.4 | 8.0 | 0.00 | 0.00 | 0.00 | 84 | 929.1 |
| 20260906180018 | 15 | 93 | 8.0 | 11.3 | 0.00 | 0.00 | 0.00 | 86 | 929.5 |
| 20260906175033 | 14 | 106 | 9.7 | 14.5 | 0.00 | 0.00 | 0.00 | 86 | 929.8 |
| 20260906174029 | 14 | 102 | 11.3 | 14.5 | 0.00 | 0.00 | 0.00 | 87 | 929.8 |
| 20260906173036 | 14 | 106 | 8.0 | 9.7 | 0.00 | 0.00 | 0.00 | 87 | 929.8 |
| 20260906172033 | 14 | 100 | 8.0 | 11.3 | 0.00 | 0.00 | 0.00 | 87 | 929.8 |
| 20260906171016 | 15 | 86 | 9.7 | 12.9 | 0.00 | 0.00 | 0.00 | 86 | 929.8 |
| 20260906170018 | 15 | 92 | 6.4 | 8.0 | 0.00 | 0.00 | 0.00 | 87 | 929.8 |
| 20260906165018 | 14 | 93 | 9.7 | 12.9 | 0.00 | 0.00 | 0.00 | 88 | 929.8 |
| 20260906164039 | 14 | 106 | 9.7 | 12.9 | 0.00 | 0.00 | 0.00 | 87 | 930.1 |
| 20260906163015 | 15 | 105 | 6.4 | 9.7 | 0.00 | 0.00 | 0.00 | 87 | 929.8 |
| 20260906162024 | 15 | 82 | 8.0 | 11.3 | 0.00 | 0.00 | 0.00 | 87 | 929.6 |
| 20260906161025 | 14 | 92 | 9.7 | 12.9 | 0.00 | 0.00 | 0.00 | 88 | 929.8 |
| 20260906160043 | 13 | 106 | 8.0 | 9.7 | 0.00 | 0.00 | 0.00 | 89 | 929.4 |
| 20260906155022 | 13 | 77 | 8.0 | 9.7 | 0.00 | 0.00 | 0.00 | 89 | 929.4 |
| 20260906154045 | 13 | 71 | 6.4 | 8.0 | 0.00 | 0.00 | 0.00 | 91 | 929.6 |
| 20260906153026 | 13 | 78 | 6.4 | 8.0 | 0.00 | 0.00 | 0.00 | 92 | 929.5 |
| 20260906152028 | 12 | 84 | 6.4 | 8.0 | 0.00 | 0.00 | 0.00 | 95 | 929.8 |
| 20260906151031 | 12 | 97 | 6.4 | 9.7 | 0.00 | 0.00 | 0.00 | 96 | 930.0 |
| 20260906150030 | 12 | 127 | 4.8 | 8.0 | 0.00 | 0.00 | 0.00 | 96 | 930.1 |
| 20260906145032 | 12 | 103 | 4.8 | 6.4 | 0.00 | 0.00 | 0.00 | 96 | 930.1 |
| 20260906144036 | 12 | 100 | 4.8 | 6.4 | 0.00 | 0.00 | 0.00 | 98 | 930.1 |
| 20260906143024 | 11 | 126 | 3.2 | 6.4 | 0.00 | 0.00 | 0.00 | 99 | 930.1 |
| 20260906142039 | 11 | 109 | 6.4 | 8.0 | 0.00 | 0.00 | 0.00 | 99 | 930.0 |
| 20260906141017 | 11 | 101 | 9.7 | 11.3 | 0.00 | 0.00 | 0.00 | 99 | 930.3 |
| 20260906140050 | 11 | 101 | 4.8 | 4.8 | 0.00 | 0.00 | 0.00 | 99 | 930.3 |
| 20260906135051 | 11 | 135 | 0.0 | 3.2 | 0.00 | 0.00 | 0.00 | 99 | 930.3 |
| 20260906134053 | 11 | 0.0 | 0.0 | 0.00 | 0.00 | 0.00 | 99 | 930.3 | |
| 20260906133036 | 11 | 138 | 1.6 | 4.8 | 0.00 | 0.00 | 0.00 | 99 | 930.3 |
| 20260906132018 | 11 | 0.0 | 0.0 | 0.00 | 0.00 | 0.00 | 99 | 930.3 | |
| 20260906131021 | 11 | 248 | 1.6 | 3.2 | 0.00 | 0.00 | 0.00 | 99 | 930.1 |
| 20260906130021 | 11 | 0.0 | 0.0 | 0.00 | 0.00 | 0.00 | 99 | 930.1 | |
| 20260906125022 | 11 | 270 | 0.0 | 3.2 | 0.00 | 0.00 | 0.00 | 99 | 930.1 |
| 20260906124019 | 11 | 348 | 1.6 | 6.4 | 0.00 | 0.00 | 0.00 | 99 | 930.0 |
| 20260906123020 | 11 | 71 | 1.6 | 3.2 | 0.00 | 0.00 | 0.00 | 99 | 930.0 |
| 20260906122016 | 11 | 88 | 4.8 | 6.4 | 0.00 | 0.00 | 0.00 | 99 | 930.1 |
| 20260906121025 | 11 | 76 | 4.8 | 8.0 | 0.00 | 0.00 | 0.00 | 99 | 930.1 |
| 20260906120020 | 11 | 101 | 4.8 | 6.4 | 0.00 | 0.00 | 0.00 | 99 | 930.2 |
| 20260906115015 | 11 | 88 | 6.4 | 8.0 | 0.00 | 0.00 | 0.00 | 99 | 930.4 |
| 20260906114037 | 11 | 101 | 4.8 | 6.4 | 0.00 | 0.00 | 0.00 | 99 | 930.6 |
| 20260906113018 | 11 | 89 | 1.6 | 3.2 | 0.00 | 0.00 | 0.00 | 99 | 930.6 |
| 20260906112022 | 11 | 87 | 3.2 | 4.8 | 0.00 | 0.00 | 0.00 | 99 | 930.6 |
| 20260906111050 | 11 | 68 | 4.8 | 6.4 | 0.00 | 0.00 | 0.00 | 99 | 930.6 |
| 20260906110053 | 11 | 23 | 3.2 | 4.8 | 0.00 | 0.00 | 0.00 | 99 | 930.6 |
| 20260906105034 | 11 | 69 | 4.8 | 6.4 | 0.00 | 0.00 | 0.00 | 99 | 930.6 |
| 20260906104016 | 11 | 95 | 6.4 | 8.0 | 0.00 | 0.00 | 0.00 | 99 | 930.6 |
| 20260906103017 | 11 | 65 | 3.2 | 6.4 | 0.00 | 0.00 | 0.00 | 99 | 931.1 |
| 20260906102040 | 11 | 14 | 0.0 | 3.2 | 0.00 | 0.00 | 0.00 | 99 | 931.1 |
| 20260906101021 | 11 | 346 | 4.8 | 6.4 | 0.00 | 0.00 | 0.00 | 99 | 931.1 |
| 20260906100021 | 11 | 352 | 3.2 | 4.8 | 0.00 | 0.00 | 0.00 | 99 | 931.1 |
| 20260906095023 | 11 | 42 | 4.8 | 6.4 | 0.00 | 0.00 | 0.00 | 99 | 931.2 |
| 20260906094018 | 11 | 23 | 0.0 | 3.2 | 0.00 | 0.00 | 0.00 | 99 | 931.3 |
| 20260906093028 | 11 | 358 | 1.6 | 4.8 | 0.00 | 0.00 | 0.00 | 99 | 931.3 |
| 20260906092029 | 11 | 328 | 3.2 | 4.8 | 0.00 | 0.00 | 0.00 | 99 | 931.5 |
| 20260906091051 | 11 | 315 | 1.6 | 3.2 | 0.00 | 0.00 | 0.00 | 99 | 931.6 |
| 20260906090034 | 11 | 331 | 3.2 | 4.8 | 0.00 | 0.00 | 0.00 | 99 | 931.5 |
| 20260906085016 | 11 | 9 | 1.6 | 3.2 | 0.00 | 0.00 | 0.00 | 99 | 931.5 |
| 20260906084030 | 11 | 324 | 6.4 | 6.4 | 0.00 | 0.00 | 0.00 | 99 | 931.5 |
| 20260906083028 | 11 | 314 | 6.4 | 8.0 | 0.00 | 0.00 | 0.00 | 99 | 931.5 |
| 20260906082029 | 11 | 315 | 1.6 | 4.8 | 0.00 | 0.00 | 0.00 | 99 | 931.5 |
| 20260906081030 | 11 | 0.0 | 0.0 | 0.00 | 0.00 | 0.00 | 99 | 931.5 | |
| 20260906080155 | 11 | 348 | 1.6 | 3.2 | 0.00 | 0.00 | 0.00 | 99 | 931.5 |
| 20260906075028 | 11 | 355 | 1.6 | 3.2 | 0.00 | 0.00 | 0.00 | 99 | 931.5 |
| 20260906074030 | 11 | 351 | 1.6 | 4.8 | 0.00 | 0.00 | 0.00 | 99 | 931.6 |
| 20260906073028 | 11 | 338 | 3.2 | 4.8 | 0.00 | 0.00 | 0.00 | 99 | 931.6 |
| 20260906072022 | 11 | 338 | 1.6 | 4.8 | 0.00 | 0.00 | 0.00 | 99 | 931.6 |
| 20260906071019 | 11 | 338 | 0.0 | 3.2 | 0.00 | 0.00 | 0.00 | 99 | 931.6 |
| 20260906070025 | 11 | 20 | 1.6 | 4.8 | 0.00 | 0.00 | 0.00 | 99 | 931.5 |
| 20260906065027 | 11 | 8 | 1.6 | 3.2 | 0.00 | 0.00 | 0.00 | 99 | 931.4 |
| 20260906064028 | 11 | 338 | 1.6 | 3.2 | 0.00 | 0.00 | 0.00 | 98 | 931.3 |
| 20260906063024 | 11 | 341 | 4.8 | 6.4 | 0.00 | 0.00 | 0.00 | 98 | 931.3 |
| 20260906062043 | 11 | 4 | 1.6 | 4.8 | 0.00 | 0.00 | 0.00 | 98 | 931.3 |
| 20260906061022 | 11 | 2 | 3.2 | 4.8 | 0.00 | 0.00 | 0.00 | 98 | 931.5 |
| 20260906060019 | 11 | 353 | 1.6 | 4.8 | 0.00 | 0.00 | 0.00 | 98 | 931.5 |
| 20260906055021 | 11 | 340 | 3.2 | 4.8 | 0.00 | 0.00 | 0.00 | 98 | 931.5 |
| 20260906054022 | 11 | 46 | 3.2 | 4.8 | 0.00 | 0.00 | 0.00 | 98 | 931.3 |
| 20260906053019 | 11 | 341 | 6.4 | 8.0 | 0.00 | 0.00 | 0.00 | 98 | 931.3 |
| 20260906052019 | 11 | 9 | 4.8 | 8.0 | 0.00 | 0.00 | 0.00 | 98 | 931.3 |
| 20260906051015 | 12 | 6 | 4.8 | 6.4 | 0.00 | 0.00 | 0.00 | 98 | 931.6 |
| 20260906050017 | 12 | 356 | 3.2 | 4.8 | 0.00 | 0.00 | 0.00 | 98 | 931.4 |
| 20260906045037 | 12 | 21 | 4.8 | 6.4 | 0.00 | 0.00 | 0.00 | 98 | 931.3 |
| 20260906044018 | 12 | 359 | 4.8 | 6.4 | 0.00 | 0.00 | 0.00 | 98 | 931.3 |
| 20260906043034 | 12 | 345 | 4.8 | 8.0 | 0.00 | 0.00 | 0.00 | 98 | 931.3 |
| 20260906042018 | 12 | 324 | 4.8 | 6.4 | 0.00 | 0.00 | 0.00 | 98 | 931.3 |
| 20260906041018 | 12 | 353 | 3.2 | 6.4 | 0.00 | 0.00 | 0.00 | 98 | 931.3 |
| 20260906040019 | 12 | 17 | 4.8 | 6.4 | 0.00 | 0.00 | 0.00 | 98 | 931.3 |
| 20260906035015 | 12 | 3 | 6.4 | 9.7 | 0.00 | 0.00 | 0.00 | 98 | 931.3 |
| 20260906034017 | 12 | 5 | 4.8 | 8.0 | 0.00 | 0.00 | 0.00 | 98 | 931.3 |
| 20260906033031 | 12 | 349 | 8.0 | 9.7 | 0.00 | 0.00 | 0.00 | 98 | 931.3 |
| 20260906032053 | 12 | 355 | 8.0 | 11.3 | 0.00 | 0.00 | 0.00 | 98 | 931.3 |
| 20260906031016 | 12 | 349 | 6.4 | 9.7 | 0.00 | 0.00 | 0.00 | 98 | 931.1 |
| 20260906030030 | 12 | 341 | 6.4 | 9.7 | 0.00 | 0.00 | 0.00 | 98 | 931.1 |
| 20260906025028 | 12 | 3 | 6.4 | 9.7 | 0.00 | 0.00 | 0.00 | 98 | 931.0 |
| 20260906024022 | 12 | 351 | 9.7 | 11.3 | 0.00 | 0.00 | 0.00 | 98 | 931.0 |
| 20260906023019 | 12 | 344 | 9.7 | 12.9 | 0.00 | 0.00 | 0.00 | 98 | 931.1 |
| 20260906022033 | 12 | 37 | 4.8 | 8.0 | 0.00 | 0.00 | 0.00 | 98 | 931.1 |
| 20260906021022 | 12 | 14 | 6.4 | 11.3 | 0.00 | 0.00 | 0.00 | 98 | 931.1 |
| 20260906020024 | 12 | 357 | 6.4 | 9.7 | 0.00 | 0.00 | 0.00 | 98 | 931.0 |
| 20260906015027 | 12 | 336 | 9.7 | 12.9 | 0.00 | 0.00 | 0.00 | 98 | 930.9 |
| 20260906014028 | 12 | 7 | 9.7 | 11.3 | 0.00 | 0.00 | 0.00 | 98 | 930.8 |
| 20260906013029 | 12 | 356 | 8.0 | 9.7 | 0.00 | 0.00 | 0.00 | 98 | 930.8 |
| 20260906012032 | 12 | 352 | 6.4 | 8.0 | 0.00 | 0.00 | 0.00 | 98 | 930.6 |
| 20260906011032 | 12 | 358 | 8.0 | 11.3 | 0.00 | 0.00 | 0.00 | 98 | 930.6 |
| 20260906010017 | 12 | 346 | 8.0 | 12.9 | 0.00 | 0.00 | 0.00 | 98 | 930.5 |
| 20260906005017 | 12 | 343 | 8.0 | 9.7 | 0.00 | 0.00 | 0.00 | 98 | 930.5 |
| 20260906004040 | 12 | 346 | 9.7 | 12.9 | 0.00 | 0.00 | 0.00 | 97 | 930.5 |
| 20260906003040 | 12 | 350 | 9.7 | 12.9 | 0.00 | 0.00 | 0.00 | 97 | 930.5 |
| 20260906002043 | 12 | 323 | 9.7 | 14.5 | 0.00 | 0.00 | 0.00 | 97 | 930.3 |
| 20260906001017 | 12 | 313 | 9.7 | 16.1 | 0.00 | 0.00 | 0.00 | 97 | 930.3 |
| 20260906000019 | 12 | 329 | 9.7 | 14.5 | 0.00 | 0.00 | 0.00 | 97 | 930.3 |
| 20260905235020 | 12 | 321 | 9.7 | 16.1 | 0.00 | 0.03 | 0.00 | 97 | 930.3 |
| 20260905234020 | 12 | 301 | 11.3 | 17.7 | 0.00 | 0.03 | 0.00 | 97 | 930.3 |
| 20260905233018 | 12 | 337 | 9.7 | 12.9 | 0.00 | 0.03 | 0.00 | 97 | 930.3 |
| 20260905232021 | 12 | 324 | 9.7 | 14.5 | 0.00 | 0.03 | 0.00 | 96 | 930.3 |
| 20260905231021 | 12 | 326 | 9.7 | 14.5 | 0.00 | 0.03 | 0.00 | 96 | 930.1 |
| 20260905230024 | 12 | 336 | 9.7 | 14.5 | 0.00 | 0.03 | 0.00 | 96 | 930.1 |